This is the latest recevied weather packets stored in our database for station/object W3AJR. If no packets are shown the sender has not sent any weather packets the latest 1 day(s).
| Time | Temp. | Humidity | Pressure | Rain* | Wind** | Luminosity | Snow |
|---|---|---|---|---|---|---|---|
| 1778035132 | 20° C | 50% | 1010.5 hPa | 0 mm | 0.45 m/s, 220° | 0 W/m² | - |
| 1778034829 | 20° C | 50% | 1010.4 hPa | 0 mm | 0 m/s | 0 W/m² | - |
| 1778034526 | 19.44° C | 51% | 1010.5 hPa | 0 mm | 0 m/s | 0 W/m² | - |
| 1778034224 | 19.44° C | 51% | 1010.5 hPa | 0 mm | 0 m/s | 0 W/m² | - |
| 1778033921 | 20° C | 50% | 1010.3 hPa | 0 mm | 0 m/s | 0 W/m² | - |
| 1778033618 | 20° C | 49% | 1010.6 hPa | 0 mm | 0 m/s | 0 W/m² | - |
| 1778033315 | 20.56° C | 48% | 1010.5 hPa | 0 mm | 0 m/s | 0 W/m² | - |
| 1778033013 | 20.56° C | 48% | 1010.2 hPa | 0 mm | 0 m/s | 0 W/m² | - |
| 1778032710 | 21.11° C | 47% | 1010.6 hPa | 0 mm | 0 m/s | 0 W/m² | - |
| 1778032408 | 21.67° C | 46% | 1010.5 hPa | 0 mm | 0 m/s | 0 W/m² | - |
| 1778032104 | 21.67° C | 45% | 1010.5 hPa | 0 mm | 0.45 m/s, 217° | 0 W/m² | - |
| 1778031801 | 22.22° C | 44% | 1010.7 hPa | 0 mm | 0 m/s | 0 W/m² | - |
| 1778031498 | 22.22° C | 42% | 1010.4 hPa | 0 mm | 1.34 m/s, 212° | 0 W/m² | - |
| 1778031195 | 22.78° C | 42% | 1010.2 hPa | 0 mm | 0.89 m/s, 197° | 0 W/m² | - |
| 1778030891 | 22.78° C | 42% | 1010.5 hPa | 0 mm | 0 m/s | 0 W/m² | - |
| 1778030589 | 22.78° C | 42% | 1010.3 hPa | 0 mm | 1.34 m/s, 221° | 0 W/m² | - |
| 1778030286 | 22.78° C | 41% | 1010.1 hPa | 0 mm | 0.89 m/s, 193° | 0 W/m² | - |
| 1778029982 | 22.78° C | 41% | 1010.2 hPa | 0 mm | 1.34 m/s, 190° | 0 W/m² | - |
| 1778029680 | 23.33° C | 41% | 1010 hPa | 0 mm | 0.45 m/s, 277° | 0 W/m² | - |
| 1778029377 | 23.33° C | 40% | 1009.9 hPa | 0 mm | 0.89 m/s, 198° | 0 W/m² | - |
| 1778029074 | 23.89° C | 40% | 1010 hPa | 0 mm | 0.89 m/s, 206° | 0 W/m² | - |
| 1778028771 | 23.89° C | 39% | 1010 hPa | 0 mm | 1.34 m/s, 229° | 0 W/m² | - |
| 1778028467 | 23.89° C | 39% | 1009.7 hPa | 0 mm | 1.79 m/s, 178° | 0 W/m² | - |
| 1778028165 | 23.89° C | 38% | 1009.6 hPa | 0 mm | 1.34 m/s, 213° | 0 W/m² | - |
| 1778027860 | 24.44° C | 38% | 1009.7 hPa | 0 mm | 2.68 m/s, 179° | 0 W/m² | - |
* Rain latest hour (hover to see other rain measurements)
** Current wind speed in m/s (hover to see current wind gust speed)